sensor_id;sensor_type;location;lat;lon;timestamp;temperature;humidity
12557;DHT22;6344;49.932;8.308;2024-03-25T00:01:39;6.60;99.90
12557;DHT22;6344;49.932;8.308;2024-03-25T00:04:06;6.60;99.90
12557;DHT22;6344;49.932;8.308;2024-03-25T00:06:33;6.60;99.90
12557;DHT22;6344;49.932;8.308;2024-03-25T00:08:59;6.60;99.90
12557;DHT22;6344;49.932;8.308;2024-03-25T00:11:25;6.50;99.90
12557;DHT22;6344;49.932;8.308;2024-03-25T00:13:52;6.50;99.90
12557;DHT22;6344;49.932;8.308;2024-03-25T00:16:17;6.40;99.90
12557;DHT22;6344;49.932;8.308;2024-03-25T00:18:44;6.40;99.90
12557;DHT22;6344;49.932;8.308;2024-03-25T00:21:10;6.50;99.90
12557;DHT22;6344;49.932;8.308;2024-03-25T00:23:38;6.50;99.90
12557;DHT22;6344;49.932;8.308;2024-03-25T00:26:04;6.50;99.90
12557;DHT22;6344;49.932;8.308;2024-03-25T00:28:30;6.60;99.90
12557;DHT22;6344;49.932;8.308;2024-03-25T00:30:56;6.60;99.90
12557;DHT22;6344;49.932;8.308;2024-03-25T00:33:23;6.60;99.90
12557;DHT22;6344;49.932;8.308;2024-03-25T00:35:49;6.50;99.90
12557;DHT22;6344;49.932;8.308;2024-03-25T00:38:16;6.50;99.90
12557;DHT22;6344;49.932;8.308;2024-03-25T00:40:43;6.40;99.90
12557;DHT22;6344;49.932;8.308;2024-03-25T00:43:10;6.50;99.90
12557;DHT22;6344;49.932;8.308;2024-03-25T00:45:35;6.50;99.90
12557;DHT22;6344;49.932;8.308;2024-03-25T00:48:03;6.50;99.90
12557;DHT22;6344;49.932;8.308;2024-03-25T00:50:29;6.50;99.90
12557;DHT22;6344;49.932;8.308;2024-03-25T00:52:56;6.50;99.90
12557;DHT22;6344;49.932;8.308;2024-03-25T00:55:22;6.40;99.90
12557;DHT22;6344;49.932;8.308;2024-03-25T00:57:50;6.40;99.90
12557;DHT22;6344;49.932;8.308;2024-03-25T01:00:16;6.40;99.90
12557;DHT22;6344;49.932;8.308;2024-03-25T01:02:43;6.40;99.90
12557;DHT22;6344;49.932;8.308;2024-03-25T01:05:09;6.30;99.90
12557;DHT22;6344;49.932;8.308;2024-03-25T01:07:36;6.30;99.90
12557;DHT22;6344;49.932;8.308;2024-03-25T01:10:02;6.20;99.90
12557;DHT22;6344;49.932;8.308;2024-03-25T01:12:29;6.30;99.90
12557;DHT22;6344;49.932;8.308;2024-03-25T01:14:56;6.30;99.90
12557;DHT22;6344;49.932;8.308;2024-03-25T01:17:23;6.30;99.90
12557;DHT22;6344;49.932;8.308;2024-03-25T01:19:49;6.30;99.90
12557;DHT22;6344;49.932;8.308;2024-03-25T01:22:15;6.30;99.90
12557;DHT22;6344;49.932;8.308;2024-03-25T01:24:41;6.30;99.90
12557;DHT22;6344;49.932;8.308;2024-03-25T01:27:07;6.30;99.90
12557;DHT22;6344;49.932;8.308;2024-03-25T01:29:33;6.30;99.90
12557;DHT22;6344;49.932;8.308;2024-03-25T01:32:01;6.20;99.90
12557;DHT22;6344;49.932;8.308;2024-03-25T01:34:28;6.30;99.90
12557;DHT22;6344;49.932;8.308;2024-03-25T01:36:54;6.20;99.90
12557;DHT22;6344;49.932;8.308;2024-03-25T01:39:20;6.20;99.90
12557;DHT22;6344;49.932;8.308;2024-03-25T01:41:47;6.20;99.90
12557;DHT22;6344;49.932;8.308;2024-03-25T01:44:12;6.20;99.90
12557;DHT22;6344;49.932;8.308;2024-03-25T01:46:39;6.20;99.90
12557;DHT22;6344;49.932;8.308;2024-03-25T01:49:07;6.10;99.90
12557;DHT22;6344;49.932;8.308;2024-03-25T01:51:35;6.00;99.90
12557;DHT22;6344;49.932;8.308;2024-03-25T01:54:03;5.90;99.90
12557;DHT22;6344;49.932;8.308;2024-03-25T01:56:32;5.90;99.90
12557;DHT22;6344;49.932;8.308;2024-03-25T01:58:58;5.80;99.90
12557;DHT22;6344;49.932;8.308;2024-03-25T02:01:26;5.80;99.90
12557;DHT22;6344;49.932;8.308;2024-03-25T02:03:52;5.70;99.90
12557;DHT22;6344;49.932;8.308;2024-03-25T02:06:21;5.60;99.90
12557;DHT22;6344;49.932;8.308;2024-03-25T02:08:48;5.60;99.90
12557;DHT22;6344;49.932;8.308;2024-03-25T02:11:15;5.60;99.90
12557;DHT22;6344;49.932;8.308;2024-03-25T02:13:41;5.50;99.90
12557;DHT22;6344;49.932;8.308;2024-03-25T02:16:08;5.50;99.90
12557;DHT22;6344;49.932;8.308;2024-03-25T02:18:34;5.40;99.90
12557;DHT22;6344;49.932;8.308;2024-03-25T02:21:01;5.40;99.90
12557;DHT22;6344;49.932;8.308;2024-03-25T02:23:28;5.20;99.90
12557;DHT22;6344;49.932;8.308;2024-03-25T02:25:56;5.10;99.90
12557;DHT22;6344;49.932;8.308;2024-03-25T02:28:22;5.10;99.90
12557;DHT22;6344;49.932;8.308;2024-03-25T02:30:48;5.10;99.90
12557;DHT22;6344;49.932;8.308;2024-03-25T02:33:14;5.00;99.90
12557;DHT22;6344;49.932;8.308;2024-03-25T02:35:42;5.00;99.90
12557;DHT22;6344;49.932;8.308;2024-03-25T02:38:09;5.00;99.90
12557;DHT22;6344;49.932;8.308;2024-03-25T02:40:36;5.00;99.90
12557;DHT22;6344;49.932;8.308;2024-03-25T02:43:04;5.00;99.90
12557;DHT22;6344;49.932;8.308;2024-03-25T02:45:32;5.00;99.90
12557;DHT22;6344;49.932;8.308;2024-03-25T02:47:58;5.00;99.90
12557;DHT22;6344;49.932;8.308;2024-03-25T02:50:25;5.30;99.90
12557;DHT22;6344;49.932;8.308;2024-03-25T02:52:51;5.30;99.90
12557;DHT22;6344;49.932;8.308;2024-03-25T02:55:18;5.30;99.90
12557;DHT22;6344;49.932;8.308;2024-03-25T02:57:44;5.30;99.90
12557;DHT22;6344;49.932;8.308;2024-03-25T03:00:13;5.30;99.90
12557;DHT22;6344;49.932;8.308;2024-03-25T03:02:39;5.30;99.90
12557;DHT22;6344;49.932;8.308;2024-03-25T03:05:06;5.30;99.90
12557;DHT22;6344;49.932;8.308;2024-03-25T03:07:32;5.30;99.90
12557;DHT22;6344;49.932;8.308;2024-03-25T03:16:28;5.20;99.90
12557;DHT22;6344;49.932;8.308;2024-03-25T03:18:54;5.10;99.90
12557;DHT22;6344;49.932;8.308;2024-03-25T03:21:21;5.00;99.90
12557;DHT22;6344;49.932;8.308;2024-03-25T03:23:47;4.90;99.90
12557;DHT22;6344;49.932;8.308;2024-03-25T03:26:13;4.80;99.90
12557;DHT22;6344;49.932;8.308;2024-03-25T03:28:39;4.70;99.90
12557;DHT22;6344;49.932;8.308;2024-03-25T03:31:06;4.70;99.90
12557;DHT22;6344;49.932;8.308;2024-03-25T03:33:33;4.60;99.90
12557;DHT22;6344;49.932;8.308;2024-03-25T03:36:00;4.60;99.90
12557;DHT22;6344;49.932;8.308;2024-03-25T03:38:26;4.50;99.90
12557;DHT22;6344;49.932;8.308;2024-03-25T03:40:57;4.50;99.90
12557;DHT22;6344;49.932;8.308;2024-03-25T03:43:22;4.40;99.90
12557;DHT22;6344;49.932;8.308;2024-03-25T03:45:49;4.40;99.90
12557;DHT22;6344;49.932;8.308;2024-03-25T03:48:14;4.40;99.90
12557;DHT22;6344;49.932;8.308;2024-03-25T03:50:43;4.40;99.90
12557;DHT22;6344;49.932;8.308;2024-03-25T03:53:09;4.50;99.90
12557;DHT22;6344;49.932;8.308;2024-03-25T03:55:35;4.50;99.90
12557;DHT22;6344;49.932;8.308;2024-03-25T03:58:01;4.50;99.90
12557;DHT22;6344;49.932;8.308;2024-03-25T04:00:28;4.50;99.90
12557;DHT22;6344;49.932;8.308;2024-03-25T04:02:54;4.40;99.90
12557;DHT22;6344;49.932;8.308;2024-03-25T04:05:20;4.40;99.90
12557;DHT22;6344;49.932;8.308;2024-03-25T04:07:47;4.40;99.90
12557;DHT22;6344;49.932;8.308;2024-03-25T04:10:14;4.30;99.90
12557;DHT22;6344;49.932;8.308;2024-03-25T04:12:40;4.20;99.90
12557;DHT22;6344;49.932;8.308;2024-03-25T04:15:07;4.10;99.90
12557;DHT22;6344;49.932;8.308;2024-03-25T04:17:33;4.00;99.90
12557;DHT22;6344;49.932;8.308;2024-03-25T04:20:00;3.90;99.90
12557;DHT22;6344;49.932;8.308;2024-03-25T04:22:25;3.80;99.90
12557;DHT22;6344;49.932;8.308;2024-03-25T04:24:53;3.80;99.90
12557;DHT22;6344;49.932;8.308;2024-03-25T04:27:19;3.60;99.90
12557;DHT22;6344;49.932;8.308;2024-03-25T04:29:48;3.50;99.90
12557;DHT22;6344;49.932;8.308;2024-03-25T04:32:14;3.40;99.90
12557;DHT22;6344;49.932;8.308;2024-03-25T04:34:40;3.30;99.90
12557;DHT22;6344;49.932;8.308;2024-03-25T04:37:06;3.20;99.90
12557;DHT22;6344;49.932;8.308;2024-03-25T04:39:32;3.20;99.90
12557;DHT22;6344;49.932;8.308;2024-03-25T04:41:59;3.20;99.90
12557;DHT22;6344;49.932;8.308;2024-03-25T04:44:24;3.20;99.90
12557;DHT22;6344;49.932;8.308;2024-03-25T04:46:50;3.20;99.90
12557;DHT22;6344;49.932;8.308;2024-03-25T04:49:16;3.10;99.90
12557;DHT22;6344;49.932;8.308;2024-03-25T04:51:42;3.10;99.90
12557;DHT22;6344;49.932;8.308;2024-03-25T04:54:08;3.00;99.90
12557;DHT22;6344;49.932;8.308;2024-03-25T04:56:33;2.90;99.90
12557;DHT22;6344;49.932;8.308;2024-03-25T04:59:00;2.90;99.90
12557;DHT22;6344;49.932;8.308;2024-03-25T05:01:26;3.00;99.90
12557;DHT22;6344;49.932;8.308;2024-03-25T05:03:52;3.00;99.90
12557;DHT22;6344;49.932;8.308;2024-03-25T05:06:18;2.90;99.90
12557;DHT22;6344;49.932;8.308;2024-03-25T05:08:44;2.90;99.90
12557;DHT22;6344;49.932;8.308;2024-03-25T05:11:09;3.00;99.90
12557;DHT22;6344;49.932;8.308;2024-03-25T05:13:35;2.90;99.90
12557;DHT22;6344;49.932;8.308;2024-03-25T05:16:03;3.00;99.90
12557;DHT22;6344;49.932;8.308;2024-03-25T05:18:28;3.00;99.90
12557;DHT22;6344;49.932;8.308;2024-03-25T05:20:54;3.00;99.90
12557;DHT22;6344;49.932;8.308;2024-03-25T05:23:20;3.00;99.90
12557;DHT22;6344;49.932;8.308;2024-03-25T05:25:46;3.10;99.90
12557;DHT22;6344;49.932;8.308;2024-03-25T05:28:11;3.10;99.90
12557;DHT22;6344;49.932;8.308;2024-03-25T05:30:37;3.20;99.90
12557;DHT22;6344;49.932;8.308;2024-03-25T05:33:04;3.30;99.90
12557;DHT22;6344;49.932;8.308;2024-03-25T05:35:30;3.40;99.90
12557;DHT22;6344;49.932;8.308;2024-03-25T05:37:56;3.40;99.90
12557;DHT22;6344;49.932;8.308;2024-03-25T05:40:22;3.50;99.90
12557;DHT22;6344;49.932;8.308;2024-03-25T05:42:47;3.50;99.90
12557;DHT22;6344;49.932;8.308;2024-03-25T05:45:13;3.50;99.90
12557;DHT22;6344;49.932;8.308;2024-03-25T05:47:39;3.50;99.90
12557;DHT22;6344;49.932;8.308;2024-03-25T05:50:07;3.50;99.90
12557;DHT22;6344;49.932;8.308;2024-03-25T05:52:33;3.50;99.90
12557;DHT22;6344;49.932;8.308;2024-03-25T05:54:59;3.60;99.90
12557;DHT22;6344;49.932;8.308;2024-03-25T05:57:25;3.60;99.90
12557;DHT22;6344;49.932;8.308;2024-03-25T05:59:50;3.70;99.90
12557;DHT22;6344;49.932;8.308;2024-03-25T06:02:16;3.70;99.90
12557;DHT22;6344;49.932;8.308;2024-03-25T06:04:42;3.70;99.90
12557;DHT22;6344;49.932;8.308;2024-03-25T06:07:09;3.70;99.90
12557;DHT22;6344;49.932;8.308;2024-03-25T06:09:35;3.70;99.90
12557;DHT22;6344;49.932;8.308;2024-03-25T06:12:00;3.70;99.90
12557;DHT22;6344;49.932;8.308;2024-03-25T06:14:26;3.80;99.90
12557;DHT22;6344;49.932;8.308;2024-03-25T06:16:52;3.90;99.90
12557;DHT22;6344;49.932;8.308;2024-03-25T06:19:18;3.90;99.90
12557;DHT22;6344;49.932;8.308;2024-03-25T06:21:44;4.00;99.90
12557;DHT22;6344;49.932;8.308;2024-03-25T06:24:11;4.20;99.90
12557;DHT22;6344;49.932;8.308;2024-03-25T06:26:36;4.40;99.90
12557;DHT22;6344;49.932;8.308;2024-03-25T06:29:02;4.60;99.90
12557;DHT22;6344;49.932;8.308;2024-03-25T06:31:28;4.60;99.90
12557;DHT22;6344;49.932;8.308;2024-03-25T06:34:12;4.50;99.90
12557;DHT22;6344;49.932;8.308;2024-03-25T06:36:41;4.50;99.90
12557;DHT22;6344;49.932;8.308;2024-03-25T06:39:07;4.50;99.90
12557;DHT22;6344;49.932;8.308;2024-03-25T06:41:34;4.60;99.90
12557;DHT22;6344;49.932;8.308;2024-03-25T06:44:00;4.70;99.90
12557;DHT22;6344;49.932;8.308;2024-03-25T06:46:25;5.10;99.90
12557;DHT22;6344;49.932;8.308;2024-03-25T06:48:51;5.40;99.90
12557;DHT22;6344;49.932;8.308;2024-03-25T06:51:17;5.70;99.90
12557;DHT22;6344;49.932;8.308;2024-03-25T06:53:44;5.80;99.90
12557;DHT22;6344;49.932;8.308;2024-03-25T06:56:10;5.80;99.90
12557;DHT22;6344;49.932;8.308;2024-03-25T06:58:37;6.00;99.90
12557;DHT22;6344;49.932;8.308;2024-03-25T07:01:07;6.00;99.90
12557;DHT22;6344;49.932;8.308;2024-03-25T07:03:33;6.00;99.90
12557;DHT22;6344;49.932;8.308;2024-03-25T07:06:00;6.10;99.90
12557;DHT22;6344;49.932;8.308;2024-03-25T07:08:26;6.20;99.90
12557;DHT22;6344;49.932;8.308;2024-03-25T07:10:53;6.30;99.90
12557;DHT22;6344;49.932;8.308;2024-03-25T07:13:18;6.30;99.90
12557;DHT22;6344;49.932;8.308;2024-03-25T07:15:46;6.40;99.90
12557;DHT22;6344;49.932;8.308;2024-03-25T07:18:12;6.60;99.90
12557;DHT22;6344;49.932;8.308;2024-03-25T07:20:38;6.90;99.90
12557;DHT22;6344;49.932;8.308;2024-03-25T07:23:04;7.10;99.90
12557;DHT22;6344;49.932;8.308;2024-03-25T07:25:30;7.40;99.90
12557;DHT22;6344;49.932;8.308;2024-03-25T07:27:56;7.70;99.90
12557;DHT22;6344;49.932;8.308;2024-03-25T07:30:22;7.80;99.90
12557;DHT22;6344;49.932;8.308;2024-03-25T07:32:49;8.00;99.90
12557;DHT22;6344;49.932;8.308;2024-03-25T07:35:14;7.80;99.90
12557;DHT22;6344;49.932;8.308;2024-03-25T07:37:40;8.40;99.90
12557;DHT22;6344;49.932;8.308;2024-03-25T07:40:08;8.30;99.90
12557;DHT22;6344;49.932;8.308;2024-03-25T07:42:35;9.00;99.90
12557;DHT22;6344;49.932;8.308;2024-03-25T07:45:00;8.90;99.90
12557;DHT22;6344;49.932;8.308;2024-03-25T07:47:26;9.20;99.90
12557;DHT22;6344;49.932;8.308;2024-03-25T07:49:53;8.60;99.90
12557;DHT22;6344;49.932;8.308;2024-03-25T07:52:19;9.40;99.90
12557;DHT22;6344;49.932;8.308;2024-03-25T07:54:45;9.40;99.90
12557;DHT22;6344;49.932;8.308;2024-03-25T07:57:10;9.50;99.90
12557;DHT22;6344;49.932;8.308;2024-03-25T07:59:36;10.00;99.90
12557;DHT22;6344;49.932;8.308;2024-03-25T08:02:02;10.50;99.90
12557;DHT22;6344;49.932;8.308;2024-03-25T08:04:28;10.00;99.90
12557;DHT22;6344;49.932;8.308;2024-03-25T08:06:56;10.40;99.90
12557;DHT22;6344;49.932;8.308;2024-03-25T08:09:21;10.20;99.90
12557;DHT22;6344;49.932;8.308;2024-03-25T08:11:47;10.50;99.90
12557;DHT22;6344;49.932;8.308;2024-03-25T08:14:13;9.90;99.90
12557;DHT22;6344;49.932;8.308;2024-03-25T08:16:39;10.00;99.90
12557;DHT22;6344;49.932;8.308;2024-03-25T08:19:05;10.10;99.90
12557;DHT22;6344;49.932;8.308;2024-03-25T08:21:31;9.50;99.90
12557;DHT22;6344;49.932;8.308;2024-03-25T08:23:58;9.40;99.90
12557;DHT22;6344;49.932;8.308;2024-03-25T08:26:24;10.00;99.90
12557;DHT22;6344;49.932;8.308;2024-03-25T08:28:49;10.70;99.90
12557;DHT22;6344;49.932;8.308;2024-03-25T08:31:15;10.40;99.90
12557;DHT22;6344;49.932;8.308;2024-03-25T08:33:41;10.20;99.90
12557;DHT22;6344;49.932;8.308;2024-03-25T08:36:07;11.00;99.90
12557;DHT22;6344;49.932;8.308;2024-03-25T08:38:33;10.00;99.90
12557;DHT22;6344;49.932;8.308;2024-03-25T08:41:00;10.60;99.90
12557;DHT22;6344;49.932;8.308;2024-03-25T08:43:26;11.60;99.90
12557;DHT22;6344;49.932;8.308;2024-03-25T08:45:52;10.80;99.90
12557;DHT22;6344;49.932;8.308;2024-03-25T08:48:17;9.40;99.90
12557;DHT22;6344;49.932;8.308;2024-03-25T08:50:43;10.40;99.90
12557;DHT22;6344;49.932;8.308;2024-03-25T08:53:09;11.50;99.90
12557;DHT22;6344;49.932;8.308;2024-03-25T08:55:35;11.20;99.90
12557;DHT22;6344;49.932;8.308;2024-03-25T08:58:02;11.30;99.90
12557;DHT22;6344;49.932;8.308;2024-03-25T09:00:28;11.60;99.90
12557;DHT22;6344;49.932;8.308;2024-03-25T09:02:54;11.90;99.90
12557;DHT22;6344;49.932;8.308;2024-03-25T09:05:20;12.00;99.90
12557;DHT22;6344;49.932;8.308;2024-03-25T09:07:46;11.90;99.90
12557;DHT22;6344;49.932;8.308;2024-03-25T09:10:14;11.70;99.90
12557;DHT22;6344;49.932;8.308;2024-03-25T09:12:58;12.20;99.90
12557;DHT22;6344;49.932;8.308;2024-03-25T09:15:25;12.10;99.90
12557;DHT22;6344;49.932;8.308;2024-03-25T09:17:51;13.20;99.90
12557;DHT22;6344;49.932;8.308;2024-03-25T09:20:17;12.50;99.90
12557;DHT22;6344;49.932;8.308;2024-03-25T09:22:43;13.00;99.90
12557;DHT22;6344;49.932;8.308;2024-03-25T09:25:09;12.50;99.90
12557;DHT22;6344;49.932;8.308;2024-03-25T09:27:35;12.20;99.90
12557;DHT22;6344;49.932;8.308;2024-03-25T09:30:01;11.30;99.90
12557;DHT22;6344;49.932;8.308;2024-03-25T09:32:28;11.20;99.90
12557;DHT22;6344;49.932;8.308;2024-03-25T09:34:53;11.10;99.90
12557;DHT22;6344;49.932;8.308;2024-03-25T09:37:19;11.40;99.90
12557;DHT22;6344;49.932;8.308;2024-03-25T09:39:45;11.00;99.90
12557;DHT22;6344;49.932;8.308;2024-03-25T09:42:14;11.50;99.90
12557;DHT22;6344;49.932;8.308;2024-03-25T09:44:41;10.70;99.90
12557;DHT22;6344;49.932;8.308;2024-03-25T09:47:07;11.80;99.90
12557;DHT22;6344;49.932;8.308;2024-03-25T09:49:35;12.00;99.90
12557;DHT22;6344;49.932;8.308;2024-03-25T09:52:01;13.00;99.90
12557;DHT22;6344;49.932;8.308;2024-03-25T09:54:27;12.80;99.90
12557;DHT22;6344;49.932;8.308;2024-03-25T09:56:53;13.90;99.90
12557;DHT22;6344;49.932;8.308;2024-03-25T09:59:20;13.00;99.90
12557;DHT22;6344;49.932;8.308;2024-03-25T10:01:46;13.00;99.90
12557;DHT22;6344;49.932;8.308;2024-03-25T10:04:12;13.10;99.90
12557;DHT22;6344;49.932;8.308;2024-03-25T10:06:40;12.10;99.90
12557;DHT22;6344;49.932;8.308;2024-03-25T10:09:06;12.50;99.90
12557;DHT22;6344;49.932;8.308;2024-03-25T10:11:31;11.80;99.90
12557;DHT22;6344;49.932;8.308;2024-03-25T10:13:57;11.10;99.90
12557;DHT22;6344;49.932;8.308;2024-03-25T10:16:23;11.70;99.90
12557;DHT22;6344;49.932;8.308;2024-03-25T10:18:49;12.50;99.90
12557;DHT22;6344;49.932;8.308;2024-03-25T10:21:19;12.50;99.90
12557;DHT22;6344;49.932;8.308;2024-03-25T10:23:47;12.60;99.90
12557;DHT22;6344;49.932;8.308;2024-03-25T10:26:25;13.20;99.90
12557;DHT22;6344;49.932;8.308;2024-03-25T10:29:02;13.80;99.90
12557;DHT22;6344;49.932;8.308;2024-03-25T10:31:29;14.00;99.90
12557;DHT22;6344;49.932;8.308;2024-03-25T10:33:55;11.90;99.90
12557;DHT22;6344;49.932;8.308;2024-03-25T10:36:21;12.10;99.90
12557;DHT22;6344;49.932;8.308;2024-03-25T10:38:53;11.80;99.90
12557;DHT22;6344;49.932;8.308;2024-03-25T10:41:20;11.70;99.90
12557;DHT22;6344;49.932;8.308;2024-03-25T10:43:47;12.70;99.90
12557;DHT22;6344;49.932;8.308;2024-03-25T10:46:18;13.10;99.90
12557;DHT22;6344;49.932;8.308;2024-03-25T10:48:51;12.00;99.90
12557;DHT22;6344;49.932;8.308;2024-03-25T10:51:20;12.10;99.90
12557;DHT22;6344;49.932;8.308;2024-03-25T10:53:49;11.70;99.90
12557;DHT22;6344;49.932;8.308;2024-03-25T10:56:17;12.20;99.90
12557;DHT22;6344;49.932;8.308;2024-03-25T10:58:43;12.60;99.90
12557;DHT22;6344;49.932;8.308;2024-03-25T11:01:10;12.20;99.90
12557;DHT22;6344;49.932;8.308;2024-03-25T11:03:36;12.70;99.90
12557;DHT22;6344;49.932;8.308;2024-03-25T11:06:03;12.10;99.90
12557;DHT22;6344;49.932;8.308;2024-03-25T11:08:31;11.80;99.90
12557;DHT22;6344;49.932;8.308;2024-03-25T11:10:58;13.50;99.90
12557;DHT22;6344;49.932;8.308;2024-03-25T11:13:27;13.20;99.90
12557;DHT22;6344;49.932;8.308;2024-03-25T11:15:53;14.50;99.90
12557;DHT22;6344;49.932;8.308;2024-03-25T11:18:23;14.50;99.90
12557;DHT22;6344;49.932;8.308;2024-03-25T11:20:59;14.60;99.90
12557;DHT22;6344;49.932;8.308;2024-03-25T11:23:25;14.20;99.90
12557;DHT22;6344;49.932;8.308;2024-03-25T11:25:55;14.30;99.90
12557;DHT22;6344;49.932;8.308;2024-03-25T11:28:28;14.10;99.90
12557;DHT22;6344;49.932;8.308;2024-03-25T11:30:54;13.60;99.90
12557;DHT22;6344;49.932;8.308;2024-03-25T11:33:20;14.00;99.90
12557;DHT22;6344;49.932;8.308;2024-03-25T11:35:46;14.50;99.90
12557;DHT22;6344;49.932;8.308;2024-03-25T11:38:12;14.50;99.90
12557;DHT22;6344;49.932;8.308;2024-03-25T11:40:38;13.50;99.90
12557;DHT22;6344;49.932;8.308;2024-03-25T11:43:06;13.50;99.90
12557;DHT22;6344;49.932;8.308;2024-03-25T11:45:34;14.30;99.90
12557;DHT22;6344;49.932;8.308;2024-03-25T11:47:59;14.30;99.90
12557;DHT22;6344;49.932;8.308;2024-03-25T11:50:25;14.70;99.90
12557;DHT22;6344;49.932;8.308;2024-03-25T11:52:51;14.80;99.90
12557;DHT22;6344;49.932;8.308;2024-03-25T11:55:17;15.00;99.90
12557;DHT22;6344;49.932;8.308;2024-03-25T11:57:43;14.10;99.90
12557;DHT22;6344;49.932;8.308;2024-03-25T12:00:10;14.00;99.90
12557;DHT22;6344;49.932;8.308;2024-03-25T12:02:37;14.40;99.90
12557;DHT22;6344;49.932;8.308;2024-03-25T12:05:03;14.70;99.90
12557;DHT22;6344;49.932;8.308;2024-03-25T12:07:31;14.90;99.90
12557;DHT22;6344;49.932;8.308;2024-03-25T12:09:58;15.20;99.90
12557;DHT22;6344;49.932;8.308;2024-03-25T12:12:42;14.50;99.90
12557;DHT22;6344;49.932;8.308;2024-03-25T12:15:08;14.70;99.90
12557;DHT22;6344;49.932;8.308;2024-03-25T12:17:34;15.50;99.90
12557;DHT22;6344;49.932;8.308;2024-03-25T12:20:04;14.90;99.90
12557;DHT22;6344;49.932;8.308;2024-03-25T12:22:30;14.60;99.90
12557;DHT22;6344;49.932;8.308;2024-03-25T12:24:58;15.20;99.90
12557;DHT22;6344;49.932;8.308;2024-03-25T12:27:24;15.30;99.90
12557;DHT22;6344;49.932;8.308;2024-03-25T12:29:57;16.50;99.90
12557;DHT22;6344;49.932;8.308;2024-03-25T12:32:31;15.40;99.90
12557;DHT22;6344;49.932;8.308;2024-03-25T12:34:57;15.60;99.90
12557;DHT22;6344;49.932;8.308;2024-03-25T12:37:26;15.00;99.90
12557;DHT22;6344;49.932;8.308;2024-03-25T12:39:52;13.40;99.90
12557;DHT22;6344;49.932;8.308;2024-03-25T12:42:17;14.80;99.90
12557;DHT22;6344;49.932;8.308;2024-03-25T12:44:43;15.10;99.90
12557;DHT22;6344;49.932;8.308;2024-03-25T12:47:09;15.50;99.90
12557;DHT22;6344;49.932;8.308;2024-03-25T12:49:35;14.30;99.90
12557;DHT22;6344;49.932;8.308;2024-03-25T12:52:01;14.80;99.90
12557;DHT22;6344;49.932;8.308;2024-03-25T12:54:32;14.30;99.90
12557;DHT22;6344;49.932;8.308;2024-03-25T12:56:57;14.60;99.90
12557;DHT22;6344;49.932;8.308;2024-03-25T12:59:23;15.00;99.90
12557;DHT22;6344;49.932;8.308;2024-03-25T13:01:49;16.30;99.90
12557;DHT22;6344;49.932;8.308;2024-03-25T13:04:15;15.00;99.90
12557;DHT22;6344;49.932;8.308;2024-03-25T13:06:40;15.20;99.90
12557;DHT22;6344;49.932;8.308;2024-03-25T13:09:06;14.90;99.90
12557;DHT22;6344;49.932;8.308;2024-03-25T13:11:33;15.30;99.90
12557;DHT22;6344;49.932;8.308;2024-03-25T13:13:59;15.50;99.90
12557;DHT22;6344;49.932;8.308;2024-03-25T13:16:25;15.50;99.90
12557;DHT22;6344;49.932;8.308;2024-03-25T13:18:50;16.30;99.90
12557;DHT22;6344;49.932;8.308;2024-03-25T13:21:16;15.80;99.90
12557;DHT22;6344;49.932;8.308;2024-03-25T13:23:42;16.80;99.90
12557;DHT22;6344;49.932;8.308;2024-03-25T13:26:08;16.90;99.90
12557;DHT22;6344;49.932;8.308;2024-03-25T13:28:35;15.40;99.90
12557;DHT22;6344;49.932;8.308;2024-03-25T13:31:01;14.50;99.90
12557;DHT22;6344;49.932;8.308;2024-03-25T13:33:26;14.40;99.90
12557;DHT22;6344;49.932;8.308;2024-03-25T13:35:52;14.40;99.90
12557;DHT22;6344;49.932;8.308;2024-03-25T13:38:18;14.60;99.90
12557;DHT22;6344;49.932;8.308;2024-03-25T13:40:44;15.40;99.90
12557;DHT22;6344;49.932;8.308;2024-03-25T13:43:09;15.20;99.90
12557;DHT22;6344;49.932;8.308;2024-03-25T13:45:46;13.70;99.90
12557;DHT22;6344;49.932;8.308;2024-03-25T13:48:12;12.80;99.90
12557;DHT22;6344;49.932;8.308;2024-03-25T13:50:38;13.40;99.90
12557;DHT22;6344;49.932;8.308;2024-03-25T13:53:04;13.90;99.90
12557;DHT22;6344;49.932;8.308;2024-03-25T13:55:29;13.50;99.90
12557;DHT22;6344;49.932;8.308;2024-03-25T13:57:55;14.10;99.90
12557;DHT22;6344;49.932;8.308;2024-03-25T14:00:21;14.90;99.90
12557;DHT22;6344;49.932;8.308;2024-03-25T14:02:48;15.20;99.90
12557;DHT22;6344;49.932;8.308;2024-03-25T14:05:14;15.70;99.90
12557;DHT22;6344;49.932;8.308;2024-03-25T14:07:40;14.80;99.90
12557;DHT22;6344;49.932;8.308;2024-03-25T14:10:06;15.40;99.90
12557;DHT22;6344;49.932;8.308;2024-03-25T14:12:32;15.70;99.90
12557;DHT22;6344;49.932;8.308;2024-03-25T14:14:58;14.70;99.90
12557;DHT22;6344;49.932;8.308;2024-03-25T14:17:23;14.60;99.90
12557;DHT22;6344;49.932;8.308;2024-03-25T14:19:53;14.70;99.90
12557;DHT22;6344;49.932;8.308;2024-03-25T14:22:21;13.70;99.90
12557;DHT22;6344;49.932;8.308;2024-03-25T14:24:46;13.20;99.90
12557;DHT22;6344;49.932;8.308;2024-03-25T14:27:12;14.00;99.90
12557;DHT22;6344;49.932;8.308;2024-03-25T14:29:38;14.10;99.90
12557;DHT22;6344;49.932;8.308;2024-03-25T14:32:04;13.90;99.90
12557;DHT22;6344;49.932;8.308;2024-03-25T14:34:30;13.60;99.90
12557;DHT22;6344;49.932;8.308;2024-03-25T14:36:57;13.30;99.90
12557;DHT22;6344;49.932;8.308;2024-03-25T14:39:23;14.00;99.90
12557;DHT22;6344;49.932;8.308;2024-03-25T14:41:49;14.10;99.90
12557;DHT22;6344;49.932;8.308;2024-03-25T14:44:15;14.80;99.90
12557;DHT22;6344;49.932;8.308;2024-03-25T14:46:41;14.60;99.90
12557;DHT22;6344;49.932;8.308;2024-03-25T14:49:06;14.70;99.90
12557;DHT22;6344;49.932;8.308;2024-03-25T14:51:32;14.40;99.90
12557;DHT22;6344;49.932;8.308;2024-03-25T14:54:00;14.40;99.90
12557;DHT22;6344;49.932;8.308;2024-03-25T14:56:25;14.30;99.90
12557;DHT22;6344;49.932;8.308;2024-03-25T14:58:51;14.70;99.90
12557;DHT22;6344;49.932;8.308;2024-03-25T15:01:17;15.40;99.90
12557;DHT22;6344;49.932;8.308;2024-03-25T15:03:43;15.20;99.90
12557;DHT22;6344;49.932;8.308;2024-03-25T15:06:09;14.70;99.90
12557;DHT22;6344;49.932;8.308;2024-03-25T15:08:34;14.10;99.90
12557;DHT22;6344;49.932;8.308;2024-03-25T15:11:02;13.90;99.90
12557;DHT22;6344;49.932;8.308;2024-03-25T15:13:27;14.00;99.90
12557;DHT22;6344;49.932;8.308;2024-03-25T15:15:53;14.40;99.90
12557;DHT22;6344;49.932;8.308;2024-03-25T15:18:19;13.90;99.90
12557;DHT22;6344;49.932;8.308;2024-03-25T15:20:45;14.10;99.90
12557;DHT22;6344;49.932;8.308;2024-03-25T15:23:10;13.30;99.90
12557;DHT22;6344;49.932;8.308;2024-03-25T15:25:36;13.80;99.90
12557;DHT22;6344;49.932;8.308;2024-03-25T15:28:04;14.40;99.90
12557;DHT22;6344;49.932;8.308;2024-03-25T15:30:30;14.40;99.90
12557;DHT22;6344;49.932;8.308;2024-03-25T15:32:56;14.50;99.90
12557;DHT22;6344;49.932;8.308;2024-03-25T15:35:22;14.20;99.90
12557;DHT22;6344;49.932;8.308;2024-03-25T15:37:47;14.80;99.90
12557;DHT22;6344;49.932;8.308;2024-03-25T15:40:13;14.30;99.90
12557;DHT22;6344;49.932;8.308;2024-03-25T15:42:40;15.10;99.90
12557;DHT22;6344;49.932;8.308;2024-03-25T15:45:08;15.20;99.90
12557;DHT22;6344;49.932;8.308;2024-03-25T15:47:34;14.20;99.90
12557;DHT22;6344;49.932;8.308;2024-03-25T15:49:59;14.90;99.90
12557;DHT22;6344;49.932;8.308;2024-03-25T15:52:25;13.60;99.90
12557;DHT22;6344;49.932;8.308;2024-03-25T15:54:51;13.90;99.90
12557;DHT22;6344;49.932;8.308;2024-03-25T15:57:17;14.20;99.90